sensor_id;sensor_type;location;lat;lon;timestamp;temperature;humidity
27226;DHT22;14732;51.074;3.788;2023-07-31T00:01:29;18.40;99.90
27226;DHT22;14732;51.074;3.788;2023-07-31T00:03:56;18.50;99.90
27226;DHT22;14732;51.074;3.788;2023-07-31T00:06:33;18.30;99.90
27226;DHT22;14732;51.074;3.788;2023-07-31T00:09:01;18.40;99.90
27226;DHT22;14732;51.074;3.788;2023-07-31T00:11:28;18.40;99.90
27226;DHT22;14732;51.074;3.788;2023-07-31T00:13:56;18.60;99.90
27226;DHT22;14732;51.074;3.788;2023-07-31T00:16:23;18.60;99.90
27226;DHT22;14732;51.074;3.788;2023-07-31T00:18:52;18.50;99.90
27226;DHT22;14732;51.074;3.788;2023-07-31T00:21:33;18.50;99.90
27226;DHT22;14732;51.074;3.788;2023-07-31T00:24:00;18.40;99.90
27226;DHT22;14732;51.074;3.788;2023-07-31T00:26:27;18.40;99.90
27226;DHT22;14732;51.074;3.788;2023-07-31T00:28:55;18.40;99.90
27226;DHT22;14732;51.074;3.788;2023-07-31T00:31:22;18.50;99.90
27226;DHT22;14732;51.074;3.788;2023-07-31T00:33:49;18.40;99.90
27226;DHT22;14732;51.074;3.788;2023-07-31T00:36:33;18.40;99.90
27226;DHT22;14732;51.074;3.788;2023-07-31T00:39:09;18.40;99.90
27226;DHT22;14732;51.074;3.788;2023-07-31T00:41:39;18.50;99.90
27226;DHT22;14732;51.074;3.788;2023-07-31T00:44:12;18.50;99.90
27226;DHT22;14732;51.074;3.788;2023-07-31T00:46:39;18.50;99.90
27226;DHT22;14732;51.074;3.788;2023-07-31T00:49:07;18.40;99.90
27226;DHT22;14732;51.074;3.788;2023-07-31T00:51:35;18.50;99.90
27226;DHT22;14732;51.074;3.788;2023-07-31T00:54:06;18.50;99.90
27226;DHT22;14732;51.074;3.788;2023-07-31T00:56:48;18.50;99.90
27226;DHT22;14732;51.074;3.788;2023-07-31T00:59:19;18.60;99.90
27226;DHT22;14732;51.074;3.788;2023-07-31T01:01:46;18.50;99.90
27226;DHT22;14732;51.074;3.788;2023-07-31T01:04:14;18.60;99.90
27226;DHT22;14732;51.074;3.788;2023-07-31T01:07:09;18.50;99.90
27226;DHT22;14732;51.074;3.788;2023-07-31T01:12:16;18.40;99.90
27226;DHT22;14732;51.074;3.788;2023-07-31T01:15:05;18.40;99.90
27226;DHT22;14732;51.074;3.788;2023-07-31T01:17:33;18.40;99.90
27226;DHT22;14732;51.074;3.788;2023-07-31T01:20:03;18.50;99.90
27226;DHT22;14732;51.074;3.788;2023-07-31T01:25:16;18.60;99.90
27226;DHT22;14732;51.074;3.788;2023-07-31T01:28:02;18.60;99.90
27226;DHT22;14732;51.074;3.788;2023-07-31T01:30:33;18.60;99.90
27226;DHT22;14732;51.074;3.788;2023-07-31T01:33:02;18.70;99.90
27226;DHT22;14732;51.074;3.788;2023-07-31T01:35:37;18.60;99.90
27226;DHT22;14732;51.074;3.788;2023-07-31T01:38:05;18.70;99.90
27226;DHT22;14732;51.074;3.788;2023-07-31T01:40:32;18.70;99.90
27226;DHT22;14732;51.074;3.788;2023-07-31T01:43:00;18.60;99.90
27226;DHT22;14732;51.074;3.788;2023-07-31T01:45:28;18.50;99.90
27226;DHT22;14732;51.074;3.788;2023-07-31T01:47:56;18.40;99.90
27226;DHT22;14732;51.074;3.788;2023-07-31T01:50:23;18.40;99.90
27226;DHT22;14732;51.074;3.788;2023-07-31T01:52:50;18.50;99.90
27226;DHT22;14732;51.074;3.788;2023-07-31T01:55:20;18.70;99.90
27226;DHT22;14732;51.074;3.788;2023-07-31T01:57:48;18.70;99.90
27226;DHT22;14732;51.074;3.788;2023-07-31T02:00:16;18.70;99.90
27226;DHT22;14732;51.074;3.788;2023-07-31T02:02:44;18.70;99.90
27226;DHT22;14732;51.074;3.788;2023-07-31T02:05:11;18.70;99.90
27226;DHT22;14732;51.074;3.788;2023-07-31T02:07:39;18.70;99.90
27226;DHT22;14732;51.074;3.788;2023-07-31T02:10:06;18.80;99.90
27226;DHT22;14732;51.074;3.788;2023-07-31T02:12:34;18.80;99.90
27226;DHT22;14732;51.074;3.788;2023-07-31T02:15:02;18.70;99.90
27226;DHT22;14732;51.074;3.788;2023-07-31T02:17:29;18.60;99.90
27226;DHT22;14732;51.074;3.788;2023-07-31T02:19:57;18.70;99.90
27226;DHT22;14732;51.074;3.788;2023-07-31T02:22:25;18.60;99.90
27226;DHT22;14732;51.074;3.788;2023-07-31T02:24:53;18.70;99.90
27226;DHT22;14732;51.074;3.788;2023-07-31T02:27:20;18.70;99.90
27226;DHT22;14732;51.074;3.788;2023-07-31T02:29:50;18.80;99.90
27226;DHT22;14732;51.074;3.788;2023-07-31T02:32:18;18.80;99.90
27226;DHT22;14732;51.074;3.788;2023-07-31T02:34:45;18.70;99.90
27226;DHT22;14732;51.074;3.788;2023-07-31T02:37:12;18.80;99.90
27226;DHT22;14732;51.074;3.788;2023-07-31T02:39:48;18.80;99.90
27226;DHT22;14732;51.074;3.788;2023-07-31T02:42:16;18.90;99.90
27226;DHT22;14732;51.074;3.788;2023-07-31T02:44:46;18.90;99.90
27226;DHT22;14732;51.074;3.788;2023-07-31T02:47:16;19.00;99.90
27226;DHT22;14732;51.074;3.788;2023-07-31T02:49:43;18.90;99.90
27226;DHT22;14732;51.074;3.788;2023-07-31T02:52:11;19.00;99.90
27226;DHT22;14732;51.074;3.788;2023-07-31T02:54:39;19.10;99.90
27226;DHT22;14732;51.074;3.788;2023-07-31T02:57:07;19.10;99.90
27226;DHT22;14732;51.074;3.788;2023-07-31T02:59:35;19.10;99.90
27226;DHT22;14732;51.074;3.788;2023-07-31T03:02:02;19.00;99.90
27226;DHT22;14732;51.074;3.788;2023-07-31T03:04:30;19.00;99.90
27226;DHT22;14732;51.074;3.788;2023-07-31T03:07:01;19.00;99.90
27226;DHT22;14732;51.074;3.788;2023-07-31T03:09:28;19.00;99.90
27226;DHT22;14732;51.074;3.788;2023-07-31T03:11:56;19.00;99.90
27226;DHT22;14732;51.074;3.788;2023-07-31T03:14:24;18.90;99.90
27226;DHT22;14732;51.074;3.788;2023-07-31T03:16:53;19.00;99.90
27226;DHT22;14732;51.074;3.788;2023-07-31T03:19:20;19.00;99.90
27226;DHT22;14732;51.074;3.788;2023-07-31T03:21:49;18.70;99.90
27226;DHT22;14732;51.074;3.788;2023-07-31T03:24:16;18.70;99.90
27226;DHT22;14732;51.074;3.788;2023-07-31T03:26:44;18.80;99.90
27226;DHT22;14732;51.074;3.788;2023-07-31T03:29:12;18.80;99.90
27226;DHT22;14732;51.074;3.788;2023-07-31T03:31:39;18.80;99.90
27226;DHT22;14732;51.074;3.788;2023-07-31T03:34:06;18.80;99.90
27226;DHT22;14732;51.074;3.788;2023-07-31T03:36:34;18.80;99.90
27226;DHT22;14732;51.074;3.788;2023-07-31T03:39:02;18.70;99.90
27226;DHT22;14732;51.074;3.788;2023-07-31T03:41:29;18.60;99.90
27226;DHT22;14732;51.074;3.788;2023-07-31T03:43:57;18.60;99.90
27226;DHT22;14732;51.074;3.788;2023-07-31T03:46:25;18.60;99.90
27226;DHT22;14732;51.074;3.788;2023-07-31T03:48:53;18.60;99.90
27226;DHT22;14732;51.074;3.788;2023-07-31T03:51:36;18.70;99.90
27226;DHT22;14732;51.074;3.788;2023-07-31T03:54:04;18.70;99.90
27226;DHT22;14732;51.074;3.788;2023-07-31T03:56:32;18.70;99.90
27226;DHT22;14732;51.074;3.788;2023-07-31T03:58:59;18.50;99.90
27226;DHT22;14732;51.074;3.788;2023-07-31T04:01:27;18.70;99.90
27226;DHT22;14732;51.074;3.788;2023-07-31T04:03:55;18.60;99.90
27226;DHT22;14732;51.074;3.788;2023-07-31T04:06:36;18.70;99.90
27226;DHT22;14732;51.074;3.788;2023-07-31T04:09:04;18.70;99.90
27226;DHT22;14732;51.074;3.788;2023-07-31T04:11:31;18.50;99.90
27226;DHT22;14732;51.074;3.788;2023-07-31T04:13:58;18.40;99.90
27226;DHT22;14732;51.074;3.788;2023-07-31T04:16:26;18.20;99.90
27226;DHT22;14732;51.074;3.788;2023-07-31T04:19:05;18.40;99.90
27226;DHT22;14732;51.074;3.788;2023-07-31T04:21:55;18.50;99.90
27226;DHT22;14732;51.074;3.788;2023-07-31T04:24:22;18.30;99.90
27226;DHT22;14732;51.074;3.788;2023-07-31T04:26:53;18.30;99.90
27226;DHT22;14732;51.074;3.788;2023-07-31T04:29:21;18.30;99.90
27226;DHT22;14732;51.074;3.788;2023-07-31T04:31:53;18.50;99.90
27226;DHT22;14732;51.074;3.788;2023-07-31T04:34:21;18.40;99.90
27226;DHT22;14732;51.074;3.788;2023-07-31T04:37:05;18.50;99.90
27226;DHT22;14732;51.074;3.788;2023-07-31T04:39:35;18.50;99.90
27226;DHT22;14732;51.074;3.788;2023-07-31T04:42:12;18.30;99.90
27226;DHT22;14732;51.074;3.788;2023-07-31T04:44:40;18.20;99.90
27226;DHT22;14732;51.074;3.788;2023-07-31T04:47:19;18.10;99.90
27226;DHT22;14732;51.074;3.788;2023-07-31T04:49:47;18.20;99.90
27226;DHT22;14732;51.074;3.788;2023-07-31T04:52:20;18.10;99.90
27226;DHT22;14732;51.074;3.788;2023-07-31T04:54:51;18.00;99.90
27226;DHT22;14732;51.074;3.788;2023-07-31T04:57:21;18.00;99.90
27226;DHT22;14732;51.074;3.788;2023-07-31T04:59:49;18.00;99.90
27226;DHT22;14732;51.074;3.788;2023-07-31T05:02:24;17.90;99.90
27226;DHT22;14732;51.074;3.788;2023-07-31T05:04:52;17.80;99.90
27226;DHT22;14732;51.074;3.788;2023-07-31T05:07:25;17.90;99.90
27226;DHT22;14732;51.074;3.788;2023-07-31T05:09:56;18.00;99.90
27226;DHT22;14732;51.074;3.788;2023-07-31T05:12:24;18.10;99.90
27226;DHT22;14732;51.074;3.788;2023-07-31T05:14:54;18.00;99.90
27226;DHT22;14732;51.074;3.788;2023-07-31T05:17:25;18.10;99.90
27226;DHT22;14732;51.074;3.788;2023-07-31T05:19:56;18.10;99.90
27226;DHT22;14732;51.074;3.788;2023-07-31T05:22:24;18.20;99.90
27226;DHT22;14732;51.074;3.788;2023-07-31T05:24:51;18.20;99.90
27226;DHT22;14732;51.074;3.788;2023-07-31T05:27:20;18.10;99.90
27226;DHT22;14732;51.074;3.788;2023-07-31T05:29:47;18.10;99.90
27226;DHT22;14732;51.074;3.788;2023-07-31T05:32:14;18.20;99.90
27226;DHT22;14732;51.074;3.788;2023-07-31T05:34:42;18.10;99.90
27226;DHT22;14732;51.074;3.788;2023-07-31T05:37:10;18.20;99.90
27226;DHT22;14732;51.074;3.788;2023-07-31T05:39:38;18.40;99.90
27226;DHT22;14732;51.074;3.788;2023-07-31T05:42:06;18.50;99.90
27226;DHT22;14732;51.074;3.788;2023-07-31T05:44:37;18.50;99.90
27226;DHT22;14732;51.074;3.788;2023-07-31T05:47:05;18.40;99.90
27226;DHT22;14732;51.074;3.788;2023-07-31T05:49:35;18.50;99.90
27226;DHT22;14732;51.074;3.788;2023-07-31T05:52:04;18.50;99.90
27226;DHT22;14732;51.074;3.788;2023-07-31T05:54:32;18.50;99.90
27226;DHT22;14732;51.074;3.788;2023-07-31T05:56:59;18.50;99.90
27226;DHT22;14732;51.074;3.788;2023-07-31T05:59:27;18.60;99.90
27226;DHT22;14732;51.074;3.788;2023-07-31T06:01:54;18.70;99.90
27226;DHT22;14732;51.074;3.788;2023-07-31T06:04:23;18.60;99.90
27226;DHT22;14732;51.074;3.788;2023-07-31T06:06:52;18.60;99.90
27226;DHT22;14732;51.074;3.788;2023-07-31T06:09:19;18.50;99.90
27226;DHT22;14732;51.074;3.788;2023-07-31T06:11:47;18.40;99.90
27226;DHT22;14732;51.074;3.788;2023-07-31T06:14:14;18.40;99.90
27226;DHT22;14732;51.074;3.788;2023-07-31T06:16:42;18.50;99.90
27226;DHT22;14732;51.074;3.788;2023-07-31T06:19:10;18.50;99.90
27226;DHT22;14732;51.074;3.788;2023-07-31T06:21:39;18.50;99.90
27226;DHT22;14732;51.074;3.788;2023-07-31T06:24:08;18.50;99.90
27226;DHT22;14732;51.074;3.788;2023-07-31T06:26:36;18.50;99.90
27226;DHT22;14732;51.074;3.788;2023-07-31T06:29:04;18.50;99.90
27226;DHT22;14732;51.074;3.788;2023-07-31T06:31:31;18.50;99.90
27226;DHT22;14732;51.074;3.788;2023-07-31T06:33:59;18.40;99.90
27226;DHT22;14732;51.074;3.788;2023-07-31T06:36:31;18.50;99.90
27226;DHT22;14732;51.074;3.788;2023-07-31T06:38:59;18.60;99.90
27226;DHT22;14732;51.074;3.788;2023-07-31T06:41:27;18.70;99.90
27226;DHT22;14732;51.074;3.788;2023-07-31T06:43:54;18.80;99.90
27226;DHT22;14732;51.074;3.788;2023-07-31T06:46:22;18.80;99.90
27226;DHT22;14732;51.074;3.788;2023-07-31T06:48:49;18.70;99.90
27226;DHT22;14732;51.074;3.788;2023-07-31T06:51:32;18.70;99.90
27226;DHT22;14732;51.074;3.788;2023-07-31T06:53:59;18.80;99.90
27226;DHT22;14732;51.074;3.788;2023-07-31T06:56:28;18.80;99.90
27226;DHT22;14732;51.074;3.788;2023-07-31T06:58:56;18.90;99.90
27226;DHT22;14732;51.074;3.788;2023-07-31T07:01:24;19.00;99.90
27226;DHT22;14732;51.074;3.788;2023-07-31T07:03:51;19.00;99.90
27226;DHT22;14732;51.074;3.788;2023-07-31T07:06:36;19.00;99.90
27226;DHT22;14732;51.074;3.788;2023-07-31T07:09:03;19.00;99.90
27226;DHT22;14732;51.074;3.788;2023-07-31T07:11:30;18.80;99.90
27226;DHT22;14732;51.074;3.788;2023-07-31T07:13:58;18.80;99.90
27226;DHT22;14732;51.074;3.788;2023-07-31T07:16:26;18.80;99.90
27226;DHT22;14732;51.074;3.788;2023-07-31T07:18:55;18.80;99.90
27226;DHT22;14732;51.074;3.788;2023-07-31T07:21:50;18.80;99.90
27226;DHT22;14732;51.074;3.788;2023-07-31T07:24:17;18.80;99.90
27226;DHT22;14732;51.074;3.788;2023-07-31T07:26:45;18.70;99.90
27226;DHT22;14732;51.074;3.788;2023-07-31T07:29:13;18.80;99.90
27226;DHT22;14732;51.074;3.788;2023-07-31T07:31:45;18.80;99.90
27226;DHT22;14732;51.074;3.788;2023-07-31T07:34:13;19.10;99.90
27226;DHT22;14732;51.074;3.788;2023-07-31T07:36:40;19.20;99.90
27226;DHT22;14732;51.074;3.788;2023-07-31T07:39:09;19.30;99.90
27226;DHT22;14732;51.074;3.788;2023-07-31T07:41:37;19.30;99.90
27226;DHT22;14732;51.074;3.788;2023-07-31T07:44:04;19.40;99.90
27226;DHT22;14732;51.074;3.788;2023-07-31T07:46:32;19.60;99.90
27226;DHT22;14732;51.074;3.788;2023-07-31T07:49:01;19.60;99.90
27226;DHT22;14732;51.074;3.788;2023-07-31T07:51:33;19.50;99.90
27226;DHT22;14732;51.074;3.788;2023-07-31T07:54:01;19.40;99.90
27226;DHT22;14732;51.074;3.788;2023-07-31T07:56:29;19.60;99.90
27226;DHT22;14732;51.074;3.788;2023-07-31T07:58:56;19.80;99.90
27226;DHT22;14732;51.074;3.788;2023-07-31T08:01:32;19.80;99.90
27226;DHT22;14732;51.074;3.788;2023-07-31T08:03:59;19.80;99.90
27226;DHT22;14732;51.074;3.788;2023-07-31T08:06:32;19.70;99.90
27226;DHT22;14732;51.074;3.788;2023-07-31T08:08:59;19.60;99.90
27226;DHT22;14732;51.074;3.788;2023-07-31T08:11:34;19.70;99.90
27226;DHT22;14732;51.074;3.788;2023-07-31T08:14:02;19.80;99.90
27226;DHT22;14732;51.074;3.788;2023-07-31T08:16:29;19.70;99.90
27226;DHT22;14732;51.074;3.788;2023-07-31T08:18:56;19.60;99.90
27226;DHT22;14732;51.074;3.788;2023-07-31T08:21:28;19.50;99.90
27226;DHT22;14732;51.074;3.788;2023-07-31T08:24:01;19.50;99.90
27226;DHT22;14732;51.074;3.788;2023-07-31T08:26:29;19.70;99.90
27226;DHT22;14732;51.074;3.788;2023-07-31T08:28:57;19.90;99.90
27226;DHT22;14732;51.074;3.788;2023-07-31T08:31:25;20.00;99.90
27226;DHT22;14732;51.074;3.788;2023-07-31T08:33:53;20.10;99.90
27226;DHT22;14732;51.074;3.788;2023-07-31T08:36:30;20.10;99.90
27226;DHT22;14732;51.074;3.788;2023-07-31T08:38:59;20.00;99.90
27226;DHT22;14732;51.074;3.788;2023-07-31T08:41:28;20.10;99.90
27226;DHT22;14732;51.074;3.788;2023-07-31T08:43:55;20.20;99.90
27226;DHT22;14732;51.074;3.788;2023-07-31T08:46:23;20.20;99.90
27226;DHT22;14732;51.074;3.788;2023-07-31T08:48:52;20.30;99.90
27226;DHT22;14732;51.074;3.788;2023-07-31T08:51:48;20.50;99.90
27226;DHT22;14732;51.074;3.788;2023-07-31T08:54:17;20.80;99.90
27226;DHT22;14732;51.074;3.788;2023-07-31T08:56:45;20.90;99.90
27226;DHT22;14732;51.074;3.788;2023-07-31T08:59:15;20.70;99.90
27226;DHT22;14732;51.074;3.788;2023-07-31T09:01:46;20.50;99.90
27226;DHT22;14732;51.074;3.788;2023-07-31T09:04:14;20.50;99.90
27226;DHT22;14732;51.074;3.788;2023-07-31T09:06:44;20.70;99.90
27226;DHT22;14732;51.074;3.788;2023-07-31T09:09:12;20.80;99.90
27226;DHT22;14732;51.074;3.788;2023-07-31T09:11:43;20.80;99.90
27226;DHT22;14732;51.074;3.788;2023-07-31T09:14:10;20.80;99.90
27226;DHT22;14732;51.074;3.788;2023-07-31T09:16:59;20.90;99.90
27226;DHT22;14732;51.074;3.788;2023-07-31T09:19:35;20.80;99.90
27226;DHT22;14732;51.074;3.788;2023-07-31T09:22:07;20.80;99.90
27226;DHT22;14732;51.074;3.788;2023-07-31T09:24:34;20.90;99.90
27226;DHT22;14732;51.074;3.788;2023-07-31T09:27:02;21.10;99.90
27226;DHT22;14732;51.074;3.788;2023-07-31T09:29:29;21.10;99.90
27226;DHT22;14732;51.074;3.788;2023-07-31T09:31:57;21.10;99.90
27226;DHT22;14732;51.074;3.788;2023-07-31T09:34:37;21.20;99.90
27226;DHT22;14732;51.074;3.788;2023-07-31T09:37:05;21.30;99.90
27226;DHT22;14732;51.074;3.788;2023-07-31T09:39:33;21.30;99.90
27226;DHT22;14732;51.074;3.788;2023-07-31T09:42:12;21.20;99.90
27226;DHT22;14732;51.074;3.788;2023-07-31T09:44:40;21.00;99.90
27226;DHT22;14732;51.074;3.788;2023-07-31T09:47:20;21.00;99.90
27226;DHT22;14732;51.074;3.788;2023-07-31T09:49:50;21.00;99.90
27226;DHT22;14732;51.074;3.788;2023-07-31T09:52:18;21.00;99.90
27226;DHT22;14732;51.074;3.788;2023-07-31T09:54:45;21.10;99.90
27226;DHT22;14732;51.074;3.788;2023-07-31T09:57:14;21.10;99.90
27226;DHT22;14732;51.074;3.788;2023-07-31T09:59:43;21.20;99.90
27226;DHT22;14732;51.074;3.788;2023-07-31T10:02:15;21.20;99.90
27226;DHT22;14732;51.074;3.788;2023-07-31T10:04:44;21.50;99.90
27226;DHT22;14732;51.074;3.788;2023-07-31T10:07:12;21.70;99.90
27226;DHT22;14732;51.074;3.788;2023-07-31T10:09:41;21.80;99.90
27226;DHT22;14732;51.074;3.788;2023-07-31T10:12:12;22.10;99.90
27226;DHT22;14732;51.074;3.788;2023-07-31T10:14:38;22.20;99.90
27226;DHT22;14732;51.074;3.788;2023-07-31T10:17:07;22.10;99.90
27226;DHT22;14732;51.074;3.788;2023-07-31T10:19:35;21.80;99.90
27226;DHT22;14732;51.074;3.788;2023-07-31T10:22:04;21.80;99.90
27226;DHT22;14732;51.074;3.788;2023-07-31T10:24:32;21.80;99.90
27226;DHT22;14732;51.074;3.788;2023-07-31T10:27:00;21.40;99.90
27226;DHT22;14732;51.074;3.788;2023-07-31T10:29:29;21.50;99.90
27226;DHT22;14732;51.074;3.788;2023-07-31T10:31:57;21.50;99.90
27226;DHT22;14732;51.074;3.788;2023-07-31T10:34:26;21.50;99.90
27226;DHT22;14732;51.074;3.788;2023-07-31T10:40:03;21.20;99.90
27226;DHT22;14732;51.074;3.788;2023-07-31T10:42:31;21.30;99.90
27226;DHT22;14732;51.074;3.788;2023-07-31T10:44:59;21.50;99.90
27226;DHT22;14732;51.074;3.788;2023-07-31T10:47:27;21.50;99.90
27226;DHT22;14732;51.074;3.788;2023-07-31T10:52:38;21.60;99.90
27226;DHT22;14732;51.074;3.788;2023-07-31T10:55:16;21.50;99.90
27226;DHT22;14732;51.074;3.788;2023-07-31T10:57:49;21.90;99.90
27226;DHT22;14732;51.074;3.788;2023-07-31T11:00:28;22.20;99.90
27226;DHT22;14732;51.074;3.788;2023-07-31T11:03:05;22.20;99.90
27226;DHT22;14732;51.074;3.788;2023-07-31T11:05:53;22.10;99.90
27226;DHT22;14732;51.074;3.788;2023-07-31T11:08:23;22.20;99.90
27226;DHT22;14732;51.074;3.788;2023-07-31T11:13:53;21.90;99.90
27226;DHT22;14732;51.074;3.788;2023-07-31T11:16:25;21.80;99.90
27226;DHT22;14732;51.074;3.788;2023-07-31T11:18:53;21.70;99.90
27226;DHT22;14732;51.074;3.788;2023-07-31T11:21:33;22.00;99.90
27226;DHT22;14732;51.074;3.788;2023-07-31T11:24:01;22.20;99.90
27226;DHT22;14732;51.074;3.788;2023-07-31T11:26:29;22.40;99.90
27226;DHT22;14732;51.074;3.788;2023-07-31T11:28:57;22.40;99.90
27226;DHT22;14732;51.074;3.788;2023-07-31T11:31:25;22.00;99.90
27226;DHT22;14732;51.074;3.788;2023-07-31T11:34:05;21.80;99.90
27226;DHT22;14732;51.074;3.788;2023-07-31T11:39:17;21.60;99.90
27226;DHT22;14732;51.074;3.788;2023-07-31T11:41:45;21.70;99.90
27226;DHT22;14732;51.074;3.788;2023-07-31T11:44:12;21.90;99.90
27226;DHT22;14732;51.074;3.788;2023-07-31T11:46:40;21.90;99.90
27226;DHT22;14732;51.074;3.788;2023-07-31T11:49:07;21.80;99.90
27226;DHT22;14732;51.074;3.788;2023-07-31T11:51:34;21.90;99.90
27226;DHT22;14732;51.074;3.788;2023-07-31T11:54:03;22.10;99.90
27226;DHT22;14732;51.074;3.788;2023-07-31T11:56:30;22.00;99.90
27226;DHT22;14732;51.074;3.788;2023-07-31T11:58:59;22.10;99.90
27226;DHT22;14732;51.074;3.788;2023-07-31T12:01:29;22.10;99.90
27226;DHT22;14732;51.074;3.788;2023-07-31T12:03:58;21.90;99.90
27226;DHT22;14732;51.074;3.788;2023-07-31T12:06:35;21.70;99.90
27226;DHT22;14732;51.074;3.788;2023-07-31T12:09:04;21.80;99.90
27226;DHT22;14732;51.074;3.788;2023-07-31T12:11:31;21.80;99.90
27226;DHT22;14732;51.074;3.788;2023-07-31T12:13:59;21.90;99.90
27226;DHT22;14732;51.074;3.788;2023-07-31T12:16:27;22.00;99.90
27226;DHT22;14732;51.074;3.788;2023-07-31T12:18:57;22.10;99.90
27226;DHT22;14732;51.074;3.788;2023-07-31T12:21:31;21.90;99.90
27226;DHT22;14732;51.074;3.788;2023-07-31T12:23:58;21.60;99.90
27226;DHT22;14732;51.074;3.788;2023-07-31T12:26:34;21.40;99.90
27226;DHT22;14732;51.074;3.788;2023-07-31T12:29:01;21.40;99.90
27226;DHT22;14732;51.074;3.788;2023-07-31T12:31:29;21.40;99.90
27226;DHT22;14732;51.074;3.788;2023-07-31T12:34:00;21.30;99.90
27226;DHT22;14732;51.074;3.788;2023-07-31T12:36:30;21.40;99.90
27226;DHT22;14732;51.074;3.788;2023-07-31T12:39:07;21.40;99.90
27226;DHT22;14732;51.074;3.788;2023-07-31T12:41:34;21.20;99.90
27226;DHT22;14732;51.074;3.788;2023-07-31T12:44:02;21.10;99.90
27226;DHT22;14732;51.074;3.788;2023-07-31T12:46:30;21.00;99.90
27226;DHT22;14732;51.074;3.788;2023-07-31T12:48:58;21.10;99.90
27226;DHT22;14732;51.074;3.788;2023-07-31T12:51:32;21.10;99.90
27226;DHT22;14732;51.074;3.788;2023-07-31T12:53:59;20.90;99.90
27226;DHT22;14732;51.074;3.788;2023-07-31T12:56:27;20.80;99.90
27226;DHT22;14732;51.074;3.788;2023-07-31T12:58:55;20.60;99.90
27226;DHT22;14732;51.074;3.788;2023-07-31T13:01:22;20.40;99.90
27226;DHT22;14732;51.074;3.788;2023-07-31T13:03:50;20.50;99.90
27226;DHT22;14732;51.074;3.788;2023-07-31T13:06:30;20.50;99.90
27226;DHT22;14732;51.074;3.788;2023-07-31T13:08:58;20.70;99.90
27226;DHT22;14732;51.074;3.788;2023-07-31T13:11:26;20.80;99.90
27226;DHT22;14732;51.074;3.788;2023-07-31T13:13:53;20.80;99.90
27226;DHT22;14732;51.074;3.788;2023-07-31T13:16:20;20.60;99.90
27226;DHT22;14732;51.074;3.788;2023-07-31T13:18:48;20.50;99.90
27226;DHT22;14732;51.074;3.788;2023-07-31T13:21:30;20.30;99.90
27226;DHT22;14732;51.074;3.788;2023-07-31T13:24:05;20.10;99.90
27226;DHT22;14732;51.074;3.788;2023-07-31T13:26:33;20.20;99.90
27226;DHT22;14732;51.074;3.788;2023-07-31T13:29:02;20.20;99.90
27226;DHT22;14732;51.074;3.788;2023-07-31T13:31:35;20.30;99.90
27226;DHT22;14732;51.074;3.788;2023-07-31T13:34:02;20.30;99.90
27226;DHT22;14732;51.074;3.788;2023-07-31T13:36:31;20.20;99.90
27226;DHT22;14732;51.074;3.788;2023-07-31T13:39:01;20.00;99.90
27226;DHT22;14732;51.074;3.788;2023-07-31T13:41:28;19.90;99.90
27226;DHT22;14732;51.074;3.788;2023-07-31T13:43:57;19.90;99.90
27226;DHT22;14732;51.074;3.788;2023-07-31T13:46:24;19.80;99.90
27226;DHT22;14732;51.074;3.788;2023-07-31T13:48:52;19.60;99.90
27226;DHT22;14732;51.074;3.788;2023-07-31T13:51:33;19.60;99.90
27226;DHT22;14732;51.074;3.788;2023-07-31T13:54:04;19.60;99.90
27226;DHT22;14732;51.074;3.788;2023-07-31T13:56:33;19.60;99.90
27226;DHT22;14732;51.074;3.788;2023-07-31T13:59:00;19.60;99.90
27226;DHT22;14732;51.074;3.788;2023-07-31T14:01:28;19.70;99.90
27226;DHT22;14732;51.074;3.788;2023-07-31T14:03:56;19.80;99.90
27226;DHT22;14732;51.074;3.788;2023-07-31T14:06:53;20.00;99.90
27226;DHT22;14732;51.074;3.788;2023-07-31T14:09:22;19.80;99.90
27226;DHT22;14732;51.074;3.788;2023-07-31T14:11:50;19.80;99.90
27226;DHT22;14732;51.074;3.788;2023-07-31T14:14:18;19.90;99.90
27226;DHT22;14732;51.074;3.788;2023-07-31T14:16:45;19.80;99.90
27226;DHT22;14732;51.074;3.788;2023-07-31T14:19:13;19.90;99.90
27226;DHT22;14732;51.074;3.788;2023-07-31T14:21:41;20.00;99.90
27226;DHT22;14732;51.074;3.788;2023-07-31T14:24:09;20.10;99.90
27226;DHT22;14732;51.074;3.788;2023-07-31T14:26:37;20.00;99.90
27226;DHT22;14732;51.074;3.788;2023-07-31T14:29:05;20.10;99.90
27226;DHT22;14732;51.074;3.788;2023-07-31T14:31:32;20.00;99.90
27226;DHT22;14732;51.074;3.788;2023-07-31T14:34:00;20.10;99.90
27226;DHT22;14732;51.074;3.788;2023-07-31T14:36:32;19.80;99.90
27226;DHT22;14732;51.074;3.788;2023-07-31T14:39:00;20.00;99.90
27226;DHT22;14732;51.074;3.788;2023-07-31T14:41:28;19.80;99.90
27226;DHT22;14732;51.074;3.788;2023-07-31T14:43:56;19.80;99.90
27226;DHT22;14732;51.074;3.788;2023-07-31T14:46:25;19.80;99.90
27226;DHT22;14732;51.074;3.788;2023-07-31T14:48:52;19.80;99.90
27226;DHT22;14732;51.074;3.788;2023-07-31T14:51:33;19.90;99.90
27226;DHT22;14732;51.074;3.788;2023-07-31T14:54:01;19.90;99.90
27226;DHT22;14732;51.074;3.788;2023-07-31T14:56:28;19.90;99.90
27226;DHT22;14732;51.074;3.788;2023-07-31T14:58:56;19.90;99.90
27226;DHT22;14732;51.074;3.788;2023-07-31T15:01:24;20.00;99.90
27226;DHT22;14732;51.074;3.788;2023-07-31T15:03:51;20.00;99.90
27226;DHT22;14732;51.074;3.788;2023-07-31T15:06:37;19.90;99.90
27226;DHT22;14732;51.074;3.788;2023-07-31T15:09:05;19.90;99.90
27226;DHT22;14732;51.074;3.788;2023-07-31T15:11:33;19.90;99.90
27226;DHT22;14732;51.074;3.788;2023-07-31T15:14:01;20.00;99.90
27226;DHT22;14732;51.074;3.788;2023-07-31T15:16:28;20.10;99.90
27226;DHT22;14732;51.074;3.788;2023-07-31T15:18:58;20.00;99.90
27226;DHT22;14732;51.074;3.788;2023-07-31T15:21:35;20.00;99.90
27226;DHT22;14732;51.074;3.788;2023-07-31T15:24:11;19.90;99.90
27226;DHT22;14732;51.074;3.788;2023-07-31T15:26:48;20.00;99.90
27226;DHT22;14732;51.074;3.788;2023-07-31T15:29:16;19.90;99.90
27226;DHT22;14732;51.074;3.788;2023-07-31T15:31:46;19.70;99.90
27226;DHT22;14732;51.074;3.788;2023-07-31T15:34:14;19.70;99.90
27226;DHT22;14732;51.074;3.788;2023-07-31T15:36:41;19.80;99.90
27226;DHT22;14732;51.074;3.788;2023-07-31T15:39:09;20.00;99.90
27226;DHT22;14732;51.074;3.788;2023-07-31T15:41:37;19.80;99.90
27226;DHT22;14732;51.074;3.788;2023-07-31T15:44:05;19.80;99.90
27226;DHT22;14732;51.074;3.788;2023-07-31T15:46:33;19.90;99.90
27226;DHT22;14732;51.074;3.788;2023-07-31T15:49:01;20.00;99.90
27226;DHT22;14732;51.074;3.788;2023-07-31T15:51:34;19.90;99.90
27226;DHT22;14732;51.074;3.788;2023-07-31T15:54:01;19.70;99.90
27226;DHT22;14732;51.074;3.788;2023-07-31T15:56:29;19.60;99.90
27226;DHT22;14732;51.074;3.788;2023-07-31T15:58:56;19.60;99.90
27226;DHT22;14732;51.074;3.788;2023-07-31T16:01:25;19.60;99.90
27226;DHT22;14732;51.074;3.788;2023-07-31T16:03:52;19.70;99.90